createdAt,value
2023-01-29T00:00:37.781Z,7.40
2023-01-29T00:03:39.753Z,7.47
2023-01-29T00:06:41.817Z,7.63
2023-01-29T00:09:43.785Z,7.82
2023-01-29T00:12:45.818Z,8.63
2023-01-29T00:15:55.841Z,10.13
2023-01-29T00:18:57.879Z,10.00
2023-01-29T00:21:59.869Z,9.53
2023-01-29T00:25:01.877Z,9.40
2023-01-29T00:28:03.874Z,9.18
2023-01-29T00:31:09.809Z,7.30
2023-01-29T00:34:11.854Z,7.40
2023-01-29T00:37:13.999Z,7.47
2023-01-29T00:40:16.542Z,7.68
2023-01-29T00:43:37.716Z,7.13
2023-01-29T00:46:39.802Z,8.02
2023-01-29T00:49:41.834Z,9.15
2023-01-29T00:52:43.942Z,8.23
2023-01-29T00:55:46.011Z,7.75
2023-01-29T00:58:47.991Z,8.27
2023-01-29T01:02:08.752Z,7.20
2023-01-29T01:05:14.221Z,7.82
2023-01-29T01:08:45.268Z,8.45
2023-01-29T01:11:47.285Z,7.70
2023-01-29T01:14:49.612Z,7.72
2023-01-29T01:17:52.600Z,7.47
2023-01-29T01:20:58.892Z,7.28
2023-01-29T01:24:01.095Z,7.03
2023-01-29T01:27:03.138Z,7.68
2023-01-29T01:30:05.372Z,8.27
2023-01-29T01:33:07.726Z,8.27
2023-01-29T01:36:09.915Z,8.57
2023-01-29T01:39:11.948Z,8.77
2023-01-29T01:42:14.025Z,8.18
2023-01-29T01:45:25.006Z,8.25
2023-01-29T01:48:27.524Z,8.50
2023-01-29T01:51:30.910Z,8.20
2023-01-29T01:54:33.059Z,8.53
2023-01-29T01:57:35.554Z,8.93
2023-01-29T02:00:38.521Z,8.25
2023-01-29T02:04:08.994Z,8.27
2023-01-29T02:07:32.425Z,7.55
2023-01-29T02:10:47.543Z,8.27
2023-01-29T02:13:53.863Z,8.93
2023-01-29T02:17:01.524Z,7.53
2023-01-29T02:20:08.593Z,8.07
2023-01-29T02:23:30.624Z,7.75
2023-01-29T02:26:34.139Z,8.50
2023-01-29T02:29:45.352Z,8.88
2023-01-29T02:32:54.734Z,8.43
2023-01-29T02:35:57.120Z,8.90
2023-01-29T02:39:07.873Z,8.32
2023-01-29T02:42:25.359Z,7.60
2023-01-29T02:45:39.638Z,10.82
2023-01-29T02:49:02.635Z,10.63
2023-01-29T02:52:10.084Z,20.25
2023-01-29T02:55:23.492Z,21.20
2023-01-29T02:58:31.652Z,13.47
2023-01-29T03:01:40.874Z,11.75
2023-01-29T03:04:46.584Z,9.40
2023-01-29T03:07:54.617Z,10.67
2023-01-29T03:11:06.367Z,9.02
2023-01-29T03:14:13.238Z,10.00
2023-01-29T03:17:16.166Z,9.88
2023-01-29T03:20:19.944Z,10.35
2023-01-29T03:23:27.210Z,9.23
2023-01-29T03:26:48.074Z,11.15
2023-01-29T03:30:12.315Z,9.00
2023-01-29T03:33:41.633Z,9.40
2023-01-29T03:36:56.188Z,8.60
2023-01-29T03:39:58.301Z,8.20
2023-01-29T03:43:03.374Z,9.57
2023-01-29T03:46:05.618Z,8.95
2023-01-29T03:49:08.429Z,9.27
2023-01-29T03:52:28.608Z,8.68
2023-01-29T03:55:41.206Z,8.25
2023-01-29T03:58:47.396Z,9.93
2023-01-29T04:01:54.912Z,9.13
2023-01-29T04:04:59.205Z,9.82
2023-01-29T04:08:07.630Z,8.38
2023-01-29T04:11:12.616Z,9.20
2023-01-29T04:14:14.698Z,8.00
2023-01-29T04:17:18.775Z,9.15
2023-01-29T04:20:41.287Z,8.52
2023-01-29T04:23:43.486Z,9.52
2023-01-29T04:26:48.630Z,10.32
2023-01-29T04:30:09.458Z,9.73
2023-01-29T04:33:36.072Z,10.63
2023-01-29T04:36:38.280Z,10.27
2023-01-29T04:39:55.353Z,9.10
2023-01-29T04:43:06.635Z,9.20
2023-01-29T04:46:41.102Z,9.73
2023-01-29T04:49:49.354Z,10.25
2023-01-29T04:52:56.639Z,9.95
2023-01-29T04:56:01.220Z,9.70
2023-01-29T04:59:07.907Z,10.30
2023-01-29T05:02:11.907Z,10.80
2023-01-29T05:05:14.949Z,8.93
2023-01-29T05:08:21.897Z,8.07
2023-01-29T05:11:25.160Z,8.55
2023-01-29T05:14:28.285Z,9.13
2023-01-29T05:17:30.342Z,7.90
2023-01-29T05:20:33.747Z,8.68
2023-01-29T05:23:35.824Z,8.27
2023-01-29T05:26:56.564Z,7.90
2023-01-29T05:29:59.002Z,6.82
2023-01-29T05:33:01.368Z,6.95
2023-01-29T05:36:04.076Z,6.17
2023-01-29T05:39:06.172Z,6.70
2023-01-29T05:42:08.244Z,8.00
2023-01-29T05:45:10.533Z,6.53
2023-01-29T05:48:12.578Z,8.18
2023-01-29T05:51:14.566Z,7.82
2023-01-29T05:54:16.583Z,8.15
2023-01-29T05:57:18.686Z,6.93
2023-01-29T06:00:20.832Z,7.82
2023-01-29T06:03:22.878Z,9.27
2023-01-29T06:06:24.873Z,7.67
2023-01-29T06:09:26.894Z,10.10
2023-01-29T06:12:28.941Z,8.88
2023-01-29T06:15:30.924Z,9.70
2023-01-29T06:18:34.357Z,9.05
2023-01-29T06:21:36.398Z,8.77
2023-01-29T06:24:38.612Z,7.93
2023-01-29T06:27:40.638Z,8.73
2023-01-29T06:30:42.702Z,9.48
2023-01-29T06:33:44.877Z,9.65
2023-01-29T06:36:46.883Z,9.80
2023-01-29T06:39:48.999Z,10.68
2023-01-29T06:42:51.063Z,9.50
2023-01-29T06:45:54.473Z,10.83
2023-01-29T06:48:58.154Z,12.05
2023-01-29T06:52:00.159Z,10.32
2023-01-29T06:55:02.259Z,11.07
2023-01-29T06:58:07.922Z,10.85
2023-01-29T07:01:12.654Z,10.25
2023-01-29T07:04:17.512Z,10.75
2023-01-29T07:07:19.613Z,9.10
2023-01-29T07:10:21.649Z,9.60
2023-01-29T07:13:23.688Z,9.30
2023-01-29T07:16:26.519Z,12.07
2023-01-29T07:19:28.714Z,11.13
2023-01-29T07:22:30.779Z,10.60
2023-01-29T07:25:33.581Z,11.88
2023-01-29T07:28:39.190Z,10.57
2023-01-29T07:31:41.292Z,10.85
2023-01-29T07:34:43.366Z,10.35
2023-01-29T07:37:48.658Z,9.83
2023-01-29T07:40:52.037Z,15.32
2023-01-29T07:43:54.630Z,13.63
2023-01-29T07:46:56.718Z,11.43
2023-01-29T07:49:58.838Z,10.15
2023-01-29T07:53:01.131Z,6.80
2023-01-29T07:56:03.609Z,9.80
2023-01-29T07:59:05.587Z,12.40
2023-01-29T08:02:09.101Z,11.85
2023-01-29T08:05:11.144Z,10.02
2023-01-29T08:08:13.656Z,10.67
2023-01-29T08:11:15.775Z,11.35
2023-01-29T08:14:17.874Z,12.35
2023-01-29T08:17:19.969Z,13.77
2023-01-29T08:20:22.414Z,15.77
2023-01-29T08:23:24.419Z,14.85
2023-01-29T08:26:27.404Z,16.50
2023-01-29T08:29:29.480Z,18.00
2023-01-29T08:32:31.599Z,15.25
2023-01-29T08:35:33.847Z,13.68
2023-01-29T08:38:36.286Z,14.10
2023-01-29T08:41:38.481Z,16.55
2023-01-29T08:44:40.501Z,14.82
2023-01-29T08:47:46.894Z,15.13
2023-01-29T08:50:48.882Z,15.48
2023-01-29T08:53:51.683Z,17.50
2023-01-29T08:56:53.798Z,16.90
2023-01-29T08:59:55.784Z,16.65
2023-01-29T09:02:59.747Z,15.00
2023-01-29T09:06:01.789Z,15.93
2023-01-29T09:09:03.977Z,18.50
2023-01-29T09:12:06.189Z,17.38
2023-01-29T09:15:09.316Z,17.35
2023-01-29T09:18:11.424Z,19.33
2023-01-29T09:21:13.485Z,16.40
2023-01-29T09:24:15.715Z,15.95
2023-01-29T09:27:17.779Z,16.80
2023-01-29T09:30:19.810Z,15.50
2023-01-29T09:33:21.931Z,15.55
2023-01-29T09:36:23.936Z,19.33
2023-01-29T09:39:25.957Z,15.93
2023-01-29T09:42:30.192Z,18.38
2023-01-29T09:45:32.851Z,16.25
2023-01-29T09:48:35.700Z,19.77
2023-01-29T09:51:40.469Z,20.63
2023-01-29T09:54:49.703Z,18.38
2023-01-29T09:57:53.605Z,17.73
2023-01-29T10:01:13.850Z,17.92
2023-01-29T10:04:26.609Z,17.75
2023-01-29T10:07:38.117Z,19.83
2023-01-29T10:10:46.334Z,16.47
2023-01-29T10:13:52.313Z,20.08
2023-01-29T10:16:57.375Z,14.35
2023-01-29T10:20:13.359Z,14.77
2023-01-29T10:23:27.078Z,15.50
2023-01-29T10:26:29.556Z,14.90
2023-01-29T10:29:32.345Z,16.02
2023-01-29T10:32:35.564Z,16.95
2023-01-29T10:35:39.519Z,15.43
2023-01-29T10:38:46.129Z,16.38
2023-01-29T10:42:00.185Z,13.70
2023-01-29T10:45:28.404Z,16.80
2023-01-29T10:49:09.011Z,15.30
2023-01-29T10:52:20.323Z,14.90
2023-01-29T10:55:34.469Z,16.48
2023-01-29T10:58:44.596Z,17.00
2023-01-29T11:01:47.514Z,19.17
2023-01-29T11:04:49.638Z,16.42
2023-01-29T11:08:00.912Z,18.52
2023-01-29T11:11:12.098Z,17.75
2023-01-29T11:14:16.385Z,16.90
2023-01-29T11:17:19.221Z,14.90
2023-01-29T11:20:28.034Z,17.58
2023-01-29T11:23:32.256Z,17.37
2023-01-29T11:26:37.528Z,18.88
2023-01-29T11:29:49.884Z,19.48
2023-01-29T11:33:07.331Z,17.33
2023-01-29T11:36:28.554Z,17.75
2023-01-29T11:39:32.358Z,13.60
2023-01-29T11:42:35.021Z,17.17
2023-01-29T11:45:38.750Z,18.00
2023-01-29T11:48:45.446Z,18.55
2023-01-29T11:51:51.712Z,17.70
2023-01-29T11:54:59.556Z,14.90
2023-01-29T11:58:11.370Z,15.32
2023-01-29T12:01:15.075Z,15.90
2023-01-29T12:04:21.145Z,16.40
2023-01-29T12:07:23.272Z,18.77
2023-01-29T12:10:51.565Z,16.73
2023-01-29T12:13:57.084Z,16.83
2023-01-29T12:17:17.362Z,16.70
2023-01-29T12:20:23.557Z,16.38
2023-01-29T12:23:31.569Z,15.40
2023-01-29T12:27:08.867Z,15.77
2023-01-29T12:30:13.799Z,14.82
2023-01-29T12:33:16.978Z,15.35
2023-01-29T12:36:25.236Z,17.58
2023-01-29T12:39:27.408Z,17.05
2023-01-29T12:42:30.042Z,17.35
2023-01-29T12:45:32.937Z,16.65
2023-01-29T12:48:38.081Z,14.10
2023-01-29T12:51:50.205Z,17.13
2023-01-29T12:54:53.845Z,8.38
2023-01-29T12:58:04.315Z,15.13
2023-01-29T13:01:17.774Z,15.75
2023-01-29T13:04:25.856Z,12.10
2023-01-29T13:07:33.325Z,8.82
2023-01-29T13:10:38.155Z,13.30
2023-01-29T13:13:54.077Z,14.43
2023-01-29T13:17:03.825Z,13.57
2023-01-29T13:20:19.002Z,10.73
2023-01-29T13:23:24.140Z,11.63
2023-01-29T13:26:26.796Z,6.88
2023-01-29T13:29:30.364Z,13.20
2023-01-29T13:32:34.567Z,11.15
2023-01-29T13:35:38.303Z,12.10
2023-01-29T13:38:41.971Z,12.57
2023-01-29T13:41:44.131Z,12.13
2023-01-29T13:45:05.693Z,13.02
2023-01-29T13:48:27.102Z,12.43
2023-01-29T13:51:32.938Z,10.77
2023-01-29T13:54:35.055Z,13.27
2023-01-29T13:57:37.065Z,13.57
2023-01-29T14:00:38.988Z,13.27
2023-01-29T14:04:03.396Z,13.30
2023-01-29T14:07:24.573Z,11.18
2023-01-29T14:10:27.860Z,12.75
2023-01-29T14:13:34.303Z,11.82
2023-01-29T14:16:36.568Z,13.57
2023-01-29T14:19:38.679Z,13.40
2023-01-29T14:22:41.009Z,12.10
2023-01-29T14:25:43.889Z,11.23
2023-01-29T14:28:52.504Z,10.25
2023-01-29T14:31:54.829Z,10.63
2023-01-29T14:35:01.401Z,11.00
2023-01-29T14:38:05.789Z,11.55
2023-01-29T14:41:14.519Z,11.40
2023-01-29T14:44:34.882Z,11.25
2023-01-29T14:47:36.849Z,10.20
2023-01-29T14:50:59.412Z,9.52
2023-01-29T14:54:02.847Z,9.80
2023-01-29T14:57:07.321Z,10.38
2023-01-29T15:00:23.082Z,9.82
2023-01-29T15:03:45.757Z,11.77
2023-01-29T15:06:55.500Z,9.48
2023-01-29T15:10:19.121Z,11.45
2023-01-29T15:13:36.019Z,14.32
2023-01-29T15:16:57.169Z,10.75
2023-01-29T15:19:59.316Z,11.40
2023-01-29T15:23:03.475Z,9.02
2023-01-29T15:26:06.521Z,11.10
2023-01-29T15:29:21.186Z,10.90
2023-01-29T15:32:29.777Z,10.43
2023-01-29T15:35:36.206Z,11.73
2023-01-29T15:38:38.288Z,11.63
2023-01-29T15:41:40.326Z,12.40
2023-01-29T15:44:46.055Z,15.40
2023-01-29T15:47:48.240Z,13.40
2023-01-29T15:50:52.252Z,14.98
2023-01-29T15:54:02.019Z,12.88
2023-01-29T15:57:04.230Z,10.77
2023-01-29T16:00:07.518Z,13.60
2023-01-29T16:03:16.092Z,10.60
2023-01-29T16:06:18.854Z,12.83
2023-01-29T16:09:23.739Z,13.55
2023-01-29T16:12:25.850Z,10.93
2023-01-29T16:15:32.790Z,8.20
2023-01-29T16:18:41.102Z,8.57
2023-01-29T16:21:55.515Z,7.65
2023-01-29T16:24:58.669Z,8.45
2023-01-29T16:28:03.504Z,9.30
2023-01-29T16:31:05.711Z,10.38
2023-01-29T16:34:15.991Z,11.82
2023-01-29T16:37:30.848Z,11.83
2023-01-29T16:40:34.817Z,11.00
2023-01-29T16:43:53.372Z,10.70
2023-01-29T16:46:55.466Z,11.70
2023-01-29T16:50:23.172Z,11.25
2023-01-29T16:53:27.434Z,10.18
2023-01-29T16:56:31.015Z,8.85
2023-01-29T16:59:34.919Z,7.97
2023-01-29T17:02:38.624Z,7.22
2023-01-29T17:05:40.926Z,11.40
2023-01-29T17:08:43.201Z,12.20
2023-01-29T17:11:45.297Z,10.75
2023-01-29T17:14:54.664Z,10.15
2023-01-29T17:17:56.677Z,10.35
2023-01-29T17:20:58.702Z,11.02
2023-01-29T17:24:00.733Z,11.85
2023-01-29T17:27:02.706Z,12.02
2023-01-29T17:30:04.963Z,11.13
2023-01-29T17:33:17.050Z,11.52
2023-01-29T17:36:19.128Z,10.38
2023-01-29T17:39:22.178Z,11.93
2023-01-29T17:42:25.304Z,12.23
2023-01-29T17:45:27.717Z,12.57
2023-01-29T17:48:30.407Z,11.85
2023-01-29T17:51:32.401Z,11.27
2023-01-29T17:54:34.475Z,10.77
2023-01-29T17:57:36.467Z,12.27
2023-01-29T18:00:38.621Z,11.43
2023-01-29T18:03:40.718Z,12.35
2023-01-29T18:06:43.486Z,13.10
2023-01-29T18:09:45.544Z,12.97
2023-01-29T18:12:47.616Z,14.88
2023-01-29T18:15:49.896Z,14.80
2023-01-29T18:18:52.232Z,14.43
2023-01-29T18:21:54.643Z,13.88
2023-01-29T18:24:56.659Z,11.73
2023-01-29T18:27:58.723Z,11.75
2023-01-29T18:31:04.623Z,12.83
2023-01-29T18:34:06.834Z,10.57
2023-01-29T18:37:09.997Z,7.13
2023-01-29T18:40:13.917Z,10.00
2023-01-29T18:43:16.179Z,10.70
2023-01-29T18:46:18.357Z,13.13
2023-01-29T18:49:20.398Z,13.25
2023-01-29T18:52:22.465Z,9.32
2023-01-29T18:55:24.557Z,11.07
2023-01-29T18:58:36.108Z,11.40
2023-01-29T19:01:39.094Z,14.10
2023-01-29T19:04:42.228Z,13.15
2023-01-29T19:07:44.340Z,12.52
2023-01-29T19:10:46.448Z,13.13
2023-01-29T19:13:49.869Z,12.30
2023-01-29T19:16:51.981Z,12.73
2023-01-29T19:19:56.501Z,11.95
2023-01-29T19:22:58.645Z,13.75
2023-01-29T19:26:00.735Z,15.65
2023-01-29T19:29:02.704Z,17.48
2023-01-29T19:32:04.844Z,17.63
2023-01-29T19:35:06.981Z,14.82
2023-01-29T19:38:08.997Z,15.95
2023-01-29T19:41:11.059Z,15.77
2023-01-29T19:44:13.078Z,14.45
2023-01-29T19:47:15.229Z,14.90
2023-01-29T19:50:17.364Z,14.02
2023-01-29T19:53:19.575Z,14.30
2023-01-29T19:56:21.692Z,15.45
2023-01-29T19:59:23.914Z,14.90
2023-01-29T20:02:26.090Z,13.33
2023-01-29T20:05:28.214Z,15.98
2023-01-29T20:08:30.775Z,17.67
2023-01-29T20:11:32.948Z,16.87
2023-01-29T20:14:34.963Z,13.18
2023-01-29T20:17:37.071Z,15.50
2023-01-29T20:20:43.291Z,13.43
2023-01-29T20:23:46.064Z,15.77
2023-01-29T20:26:48.247Z,15.18
2023-01-29T20:29:52.661Z,15.55
2023-01-29T20:32:54.826Z,14.63
2023-01-29T20:35:57.619Z,14.07
2023-01-29T20:38:59.653Z,13.80
2023-01-29T20:42:01.818Z,15.10
2023-01-29T20:45:04.032Z,14.77
2023-01-29T20:48:07.978Z,14.48
2023-01-29T20:51:15.625Z,14.18
2023-01-29T20:54:17.884Z,12.73
2023-01-29T20:57:19.882Z,15.25
2023-01-29T21:00:21.999Z,14.52
2023-01-29T21:03:24.112Z,12.40
2023-01-29T21:06:26.125Z,13.98
2023-01-29T21:09:28.125Z,13.55
2023-01-29T21:12:30.260Z,14.43
2023-01-29T21:15:32.307Z,12.13
2023-01-29T21:18:34.341Z,13.02
2023-01-29T21:21:36.323Z,12.93
2023-01-29T21:24:38.372Z,12.88
2023-01-29T21:27:40.414Z,17.67
2023-01-29T21:30:42.452Z,15.68
2023-01-29T21:33:44.602Z,12.40
2023-01-29T21:36:46.952Z,13.85
2023-01-29T21:39:49.102Z,13.65
2023-01-29T21:43:09.955Z,15.97
2023-01-29T21:46:12.383Z,12.73
2023-01-29T21:49:14.485Z,16.55
2023-01-29T21:52:16.543Z,15.40
2023-01-29T21:55:18.804Z,18.63
2023-01-29T21:58:20.976Z,14.82
2023-01-29T22:01:37.792Z,15.20
2023-01-29T22:04:41.029Z,13.37
2023-01-29T22:07:43.151Z,18.77
2023-01-29T22:10:45.321Z,10.38
2023-01-29T22:13:47.531Z,14.80
2023-01-29T22:16:49.675Z,15.85
2023-01-29T22:19:51.835Z,13.55
2023-01-29T22:22:53.899Z,16.15
2023-01-29T22:26:01.913Z,16.45
2023-01-29T22:29:03.959Z,15.93
2023-01-29T22:32:06.614Z,13.65
2023-01-29T22:35:09.442Z,11.03
2023-01-29T22:38:11.512Z,13.68
2023-01-29T22:41:13.811Z,14.15
2023-01-29T22:44:15.817Z,14.57
2023-01-29T22:47:17.816Z,13.15
2023-01-29T22:50:19.969Z,14.60
2023-01-29T22:53:22.143Z,14.18
2023-01-29T22:56:25.476Z,18.02
2023-01-29T22:59:28.753Z,14.52
2023-01-29T23:02:32.134Z,18.63
2023-01-29T23:05:34.432Z,13.20
2023-01-29T23:08:36.457Z,13.88
2023-01-29T23:11:38.490Z,13.07
2023-01-29T23:14:40.696Z,12.77
2023-01-29T23:17:42.729Z,11.65
2023-01-29T23:20:44.733Z,13.90
2023-01-29T23:23:47.012Z,15.70
2023-01-29T23:27:07.629Z,13.43
2023-01-29T23:30:09.932Z,11.90
2023-01-29T23:33:12.305Z,12.07
2023-01-29T23:36:14.376Z,14.23
2023-01-29T23:39:16.684Z,13.57
2023-01-29T23:42:18.737Z,13.90
2023-01-29T23:45:20.738Z,14.23
2023-01-29T23:48:23.079Z,12.13
2023-01-29T23:51:25.122Z,16.63
2023-01-29T23:54:27.102Z,12.65
2023-01-29T23:57:29.140Z,14.30
